sensor_id;sensor_type;location;lat;lon;timestamp;P1;durP1;ratioP1;P2;durP2;ratioP2
35364;SDS011;21464;48.112;11.530;2022-08-19T00:00:17;6.38;;;5.88;;
35364;SDS011;21464;48.112;11.530;2022-08-19T00:02:44;6.57;;;5.97;;
35364;SDS011;21464;48.112;11.530;2022-08-19T00:05:11;6.80;;;6.20;;
35364;SDS011;21464;48.112;11.530;2022-08-19T00:07:39;6.25;;;5.75;;
35364;SDS011;21464;48.112;11.530;2022-08-19T00:10:08;6.43;;;5.85;;
35364;SDS011;21464;48.112;11.530;2022-08-19T00:12:36;6.68;;;6.07;;
35364;SDS011;21464;48.112;11.530;2022-08-19T00:15:04;6.80;;;6.20;;
35364;SDS011;21464;48.112;11.530;2022-08-19T00:17:32;6.80;;;6.20;;
35364;SDS011;21464;48.112;11.530;2022-08-19T00:19:58;7.50;;;6.80;;
35364;SDS011;21464;48.112;11.530;2022-08-19T00:22:24;7.68;;;6.95;;
35364;SDS011;21464;48.112;11.530;2022-08-19T00:24:54;7.20;;;6.60;;
35364;SDS011;21464;48.112;11.530;2022-08-19T00:27:20;7.60;;;6.90;;
35364;SDS011;21464;48.112;11.530;2022-08-19T00:29:46;8.10;;;7.40;;
35364;SDS011;21464;48.112;11.530;2022-08-19T00:32:12;7.93;;;7.13;;
35364;SDS011;21464;48.112;11.530;2022-08-19T00:34:38;7.97;;;7.28;;
35364;SDS011;21464;48.112;11.530;2022-08-19T00:37:05;8.18;;;7.32;;
35364;SDS011;21464;48.112;11.530;2022-08-19T00:39:31;9.02;;;8.18;;
35364;SDS011;21464;48.112;11.530;2022-08-19T00:41:57;8.55;;;7.75;;
35364;SDS011;21464;48.112;11.530;2022-08-19T00:44:27;8.90;;;8.10;;
35364;SDS011;21464;48.112;11.530;2022-08-19T00:46:55;7.57;;;6.88;;
35364;SDS011;21464;48.112;11.530;2022-08-19T00:49:37;9.02;;;8.23;;
35364;SDS011;21464;48.112;11.530;2022-08-19T00:52:09;9.13;;;7.85;;
35364;SDS011;21464;48.112;11.530;2022-08-19T00:54:38;8.88;;;7.97;;
35364;SDS011;21464;48.112;11.530;2022-08-19T00:57:07;9.63;;;8.77;;
35364;SDS011;21464;48.112;11.530;2022-08-19T00:59:35;8.82;;;7.90;;
35364;SDS011;21464;48.112;11.530;2022-08-19T01:02:03;9.68;;;8.68;;
35364;SDS011;21464;48.112;11.530;2022-08-19T01:04:29;9.88;;;8.98;;
35364;SDS011;21464;48.112;11.530;2022-08-19T01:06:56;10.48;;;9.38;;
35364;SDS011;21464;48.112;11.530;2022-08-19T01:09:23;10.15;;;9.10;;
35364;SDS011;21464;48.112;11.530;2022-08-19T01:11:50;10.05;;;9.05;;
35364;SDS011;21464;48.112;11.530;2022-08-19T01:14:17;10.35;;;9.35;;
35364;SDS011;21464;48.112;11.530;2022-08-19T01:16:44;10.45;;;9.48;;
35364;SDS011;21464;48.112;11.530;2022-08-19T01:19:16;10.35;;;9.40;;
35364;SDS011;21464;48.112;11.530;2022-08-19T01:21:48;10.60;;;9.60;;
35364;SDS011;21464;48.112;11.530;2022-08-19T01:24:29;10.40;;;9.50;;
35364;SDS011;21464;48.112;11.530;2022-08-19T01:26:56;11.10;;;10.00;;
35364;SDS011;21464;48.112;11.530;2022-08-19T01:29:23;11.00;;;9.90;;
35364;SDS011;21464;48.112;11.530;2022-08-19T01:31:49;10.45;;;9.55;;
35364;SDS011;21464;48.112;11.530;2022-08-19T01:34:18;11.43;;;10.32;;
35364;SDS011;21464;48.112;11.530;2022-08-19T01:36:45;10.82;;;9.82;;
35364;SDS011;21464;48.112;11.530;2022-08-19T01:39:15;11.57;;;10.43;;
35364;SDS011;21464;48.112;11.530;2022-08-19T01:41:43;11.73;;;10.55;;
35364;SDS011;21464;48.112;11.530;2022-08-19T01:44:09;10.60;;;9.70;;
35364;SDS011;21464;48.112;11.530;2022-08-19T01:46:36;10.90;;;9.80;;
35364;SDS011;21464;48.112;11.530;2022-08-19T01:49:04;10.18;;;9.27;;
35364;SDS011;21464;48.112;11.530;2022-08-19T01:51:31;9.52;;;8.73;;
35364;SDS011;21464;48.112;11.530;2022-08-19T01:53:57;9.48;;;8.60;;
35364;SDS011;21464;48.112;11.530;2022-08-19T01:56:24;9.98;;;8.98;;
35364;SDS011;21464;48.112;11.530;2022-08-19T01:58:52;9.93;;;9.02;;
35364;SDS011;21464;48.112;11.530;2022-08-19T02:01:21;9.95;;;8.95;;
35364;SDS011;21464;48.112;11.530;2022-08-19T02:03:47;9.93;;;9.02;;
35364;SDS011;21464;48.112;11.530;2022-08-19T02:06:14;10.35;;;9.23;;
35364;SDS011;21464;48.112;11.530;2022-08-19T02:08:42;11.75;;;9.30;;
35364;SDS011;21464;48.112;11.530;2022-08-19T02:11:18;10.10;;;8.88;;
35364;SDS011;21464;48.112;11.530;2022-08-19T02:13:57;10.15;;;9.23;;
35364;SDS011;21464;48.112;11.530;2022-08-19T02:16:23;10.32;;;9.32;;
35364;SDS011;21464;48.112;11.530;2022-08-19T02:18:50;9.80;;;8.90;;
35364;SDS011;21464;48.112;11.530;2022-08-19T02:21:17;10.10;;;9.20;;
35364;SDS011;21464;48.112;11.530;2022-08-19T02:23:44;10.77;;;9.27;;
35364;SDS011;21464;48.112;11.530;2022-08-19T02:26:11;9.57;;;8.68;;
35364;SDS011;21464;48.112;11.530;2022-08-19T02:28:38;9.50;;;8.52;;
35364;SDS011;21464;48.112;11.530;2022-08-19T02:31:08;9.77;;;8.88;;
35364;SDS011;21464;48.112;11.530;2022-08-19T02:33:38;9.05;;;8.15;;
35364;SDS011;21464;48.112;11.530;2022-08-19T02:36:05;8.50;;;7.70;;
35364;SDS011;21464;48.112;11.530;2022-08-19T02:38:32;8.57;;;7.80;;
35364;SDS011;21464;48.112;11.530;2022-08-19T02:41:00;8.32;;;7.53;;
35364;SDS011;21464;48.112;11.530;2022-08-19T02:43:28;8.10;;;7.30;;
35364;SDS011;21464;48.112;11.530;2022-08-19T02:45:56;8.07;;;7.28;;
35364;SDS011;21464;48.112;11.530;2022-08-19T02:48:23;7.95;;;7.28;;
35364;SDS011;21464;48.112;11.530;2022-08-19T02:50:52;8.75;;;7.95;;
35364;SDS011;21464;48.112;11.530;2022-08-19T02:53:24;8.15;;;7.45;;
35364;SDS011;21464;48.112;11.530;2022-08-19T02:55:53;8.60;;;7.80;;
35364;SDS011;21464;48.112;11.530;2022-08-19T02:58:19;8.82;;;7.97;;
35364;SDS011;21464;48.112;11.530;2022-08-19T03:00:49;8.88;;;7.68;;
35364;SDS011;21464;48.112;11.530;2022-08-19T03:03:17;7.90;;;7.20;;
35364;SDS011;21464;48.112;11.530;2022-08-19T03:05:44;8.90;;;8.10;;
35364;SDS011;21464;48.112;11.530;2022-08-19T03:08:11;8.45;;;7.75;;
35364;SDS011;21464;48.112;11.530;2022-08-19T03:10:45;8.40;;;7.53;;
35364;SDS011;21464;48.112;11.530;2022-08-19T03:13:16;7.45;;;6.85;;
35364;SDS011;21464;48.112;11.530;2022-08-19T03:15:44;8.57;;;7.75;;
35364;SDS011;21464;48.112;11.530;2022-08-19T03:18:12;8.18;;;7.38;;
35364;SDS011;21464;48.112;11.530;2022-08-19T03:20:42;8.45;;;7.68;;
35364;SDS011;21464;48.112;11.530;2022-08-19T03:23:10;7.93;;;7.22;;
35364;SDS011;21464;48.112;11.530;2022-08-19T03:25:39;8.00;;;7.25;;
35364;SDS011;21464;48.112;11.530;2022-08-19T03:28:09;7.82;;;7.13;;
35364;SDS011;21464;48.112;11.530;2022-08-19T03:30:36;8.18;;;7.38;;
35364;SDS011;21464;48.112;11.530;2022-08-19T03:33:02;8.48;;;7.75;;
35364;SDS011;21464;48.112;11.530;2022-08-19T03:35:28;9.95;;;7.43;;
35364;SDS011;21464;48.112;11.530;2022-08-19T03:37:55;7.97;;;7.28;;
35364;SDS011;21464;48.112;11.530;2022-08-19T03:40:22;8.23;;;7.43;;
35364;SDS011;21464;48.112;11.530;2022-08-19T03:42:48;8.57;;;7.68;;
35364;SDS011;21464;48.112;11.530;2022-08-19T03:45:15;7.72;;;7.03;;
35364;SDS011;21464;48.112;11.530;2022-08-19T03:47:41;8.00;;;7.30;;
35364;SDS011;21464;48.112;11.530;2022-08-19T03:50:07;8.80;;;7.22;;
35364;SDS011;21464;48.112;11.530;2022-08-19T03:52:34;8.20;;;7.43;;
35364;SDS011;21464;48.112;11.530;2022-08-19T03:55:02;7.90;;;7.18;;
35364;SDS011;21464;48.112;11.530;2022-08-19T03:57:28;8.00;;;7.22;;
35364;SDS011;21464;48.112;11.530;2022-08-19T03:59:55;8.23;;;7.53;;
35364;SDS011;21464;48.112;11.530;2022-08-19T04:02:21;8.93;;;8.10;;
35364;SDS011;21464;48.112;11.530;2022-08-19T04:04:47;7.95;;;7.25;;
35364;SDS011;21464;48.112;11.530;2022-08-19T04:07:14;8.15;;;7.45;;
35364;SDS011;21464;48.112;11.530;2022-08-19T04:09:43;8.18;;;7.38;;
35364;SDS011;21464;48.112;11.530;2022-08-19T04:12:10;7.28;;;6.68;;
35364;SDS011;21464;48.112;11.530;2022-08-19T04:14:36;8.73;;;7.15;;
35364;SDS011;21464;48.112;11.530;2022-08-19T04:17:02;8.05;;;7.35;;
35364;SDS011;21464;48.112;11.530;2022-08-19T04:19:34;8.90;;;7.60;;
35364;SDS011;21464;48.112;11.530;2022-08-19T04:22:01;8.50;;;7.70;;
35364;SDS011;21464;48.112;11.530;2022-08-19T04:24:27;8.88;;;8.02;;
35364;SDS011;21464;48.112;11.530;2022-08-19T04:26:54;11.30;;;9.10;;
35364;SDS011;21464;48.112;11.530;2022-08-19T04:29:21;11.63;;;10.43;;
35364;SDS011;21464;48.112;11.530;2022-08-19T04:31:51;12.38;;;9.32;;
35364;SDS011;21464;48.112;11.530;2022-08-19T04:34:19;9.45;;;8.60;;
35364;SDS011;21464;48.112;11.530;2022-08-19T04:36:51;14.10;;;11.93;;
35364;SDS011;21464;48.112;11.530;2022-08-19T04:39:19;16.05;;;13.20;;
35364;SDS011;21464;48.112;11.530;2022-08-19T04:41:48;9.68;;;8.77;;
35364;SDS011;21464;48.112;11.530;2022-08-19T04:44:33;9.90;;;8.75;;
35364;SDS011;21464;48.112;11.530;2022-08-19T04:47:01;11.77;;;10.48;;
35364;SDS011;21464;48.112;11.530;2022-08-19T04:49:31;10.20;;;8.68;;
35364;SDS011;21464;48.112;11.530;2022-08-19T04:51:57;10.18;;;9.18;;
35364;SDS011;21464;48.112;11.530;2022-08-19T04:54:24;11.02;;;9.93;;
35364;SDS011;21464;48.112;11.530;2022-08-19T04:56:51;10.45;;;9.45;;
35364;SDS011;21464;48.112;11.530;2022-08-19T04:59:19;11.75;;;9.90;;
35364;SDS011;21464;48.112;11.530;2022-08-19T05:01:46;12.18;;;10.95;;
35364;SDS011;21464;48.112;11.530;2022-08-19T05:04:17;12.27;;;11.05;;
35364;SDS011;21464;48.112;11.530;2022-08-19T05:06:45;10.35;;;9.35;;
35364;SDS011;21464;48.112;11.530;2022-08-19T05:09:13;11.20;;;10.20;;
35364;SDS011;21464;48.112;11.530;2022-08-19T05:11:40;12.07;;;9.07;;
35364;SDS011;21464;48.112;11.530;2022-08-19T05:14:07;9.98;;;9.07;;
35364;SDS011;21464;48.112;11.530;2022-08-19T05:16:34;11.20;;;8.93;;
35364;SDS011;21464;48.112;11.530;2022-08-19T05:19:00;9.75;;;8.77;;
35364;SDS011;21464;48.112;11.530;2022-08-19T05:21:45;11.85;;;10.48;;
35364;SDS011;21464;48.112;11.530;2022-08-19T05:24:30;13.07;;;10.85;;
35364;SDS011;21464;48.112;11.530;2022-08-19T05:27:00;10.18;;;9.18;;
35364;SDS011;21464;48.112;11.530;2022-08-19T05:29:28;9.85;;;8.85;;
35364;SDS011;21464;48.112;11.530;2022-08-19T05:31:55;11.07;;;9.25;;
35364;SDS011;21464;48.112;11.530;2022-08-19T05:34:22;9.65;;;8.65;;
35364;SDS011;21464;48.112;11.530;2022-08-19T05:36:53;9.70;;;8.70;;
35364;SDS011;21464;48.112;11.530;2022-08-19T05:39:23;10.07;;;9.07;;
35364;SDS011;21464;48.112;11.530;2022-08-19T05:41:52;10.32;;;9.13;;
35364;SDS011;21464;48.112;11.530;2022-08-19T05:44:24;9.60;;;8.65;;
35364;SDS011;21464;48.112;11.530;2022-08-19T05:46:51;10.43;;;9.32;;
35364;SDS011;21464;48.112;11.530;2022-08-19T05:49:19;11.00;;;9.50;;
35364;SDS011;21464;48.112;11.530;2022-08-19T05:51:47;10.50;;;9.50;;
35364;SDS011;21464;48.112;11.530;2022-08-19T05:54:14;11.90;;;9.50;;
35364;SDS011;21464;48.112;11.530;2022-08-19T05:56:40;10.98;;;9.88;;
35364;SDS011;21464;48.112;11.530;2022-08-19T05:59:08;10.63;;;9.52;;
35364;SDS011;21464;48.112;11.530;2022-08-19T06:01:40;11.07;;;9.98;;
35364;SDS011;21464;48.112;11.530;2022-08-19T06:04:09;11.20;;;10.10;;
35364;SDS011;21464;48.112;11.530;2022-08-19T06:06:35;11.00;;;9.90;;
35364;SDS011;21464;48.112;11.530;2022-08-19T06:09:03;12.80;;;11.55;;
35364;SDS011;21464;48.112;11.530;2022-08-19T06:14:06;13.18;;;11.80;;
35364;SDS011;21464;48.112;11.530;2022-08-19T06:16:38;13.68;;;12.27;;
35364;SDS011;21464;48.112;11.530;2022-08-19T06:19:07;13.88;;;12.38;;
35364;SDS011;21464;48.112;11.530;2022-08-19T06:21:36;13.55;;;11.75;;
35364;SDS011;21464;48.112;11.530;2022-08-19T06:24:04;12.52;;;11.32;;
35364;SDS011;21464;48.112;11.530;2022-08-19T06:26:33;12.90;;;11.60;;
35364;SDS011;21464;48.112;11.530;2022-08-19T06:29:01;13.40;;;11.93;;
35364;SDS011;21464;48.112;11.530;2022-08-19T06:31:28;12.20;;;10.93;;
35364;SDS011;21464;48.112;11.530;2022-08-19T06:33:55;13.38;;;11.98;;
35364;SDS011;21464;48.112;11.530;2022-08-19T06:36:22;16.90;;;12.68;;
35364;SDS011;21464;48.112;11.530;2022-08-19T06:38:54;14.45;;;12.95;;
35364;SDS011;21464;48.112;11.530;2022-08-19T06:41:21;14.57;;;13.18;;
35364;SDS011;21464;48.112;11.530;2022-08-19T06:43:47;13.90;;;12.50;;
35364;SDS011;21464;48.112;11.530;2022-08-19T06:46:15;15.13;;;13.25;;
35364;SDS011;21464;48.112;11.530;2022-08-19T06:48:42;14.32;;;12.48;;
35364;SDS011;21464;48.112;11.530;2022-08-19T06:51:08;14.80;;;12.95;;
35364;SDS011;21464;48.112;11.530;2022-08-19T06:53:34;14.63;;;13.13;;
35364;SDS011;21464;48.112;11.530;2022-08-19T06:56:01;15.07;;;13.52;;
35364;SDS011;21464;48.112;11.530;2022-08-19T06:58:29;15.30;;;13.48;;
35364;SDS011;21464;48.112;11.530;2022-08-19T07:00:59;14.68;;;13.00;;
35364;SDS011;21464;48.112;11.530;2022-08-19T07:03:29;15.65;;;14.05;;
35364;SDS011;21464;48.112;11.530;2022-08-19T07:05:57;15.75;;;13.98;;
35364;SDS011;21464;48.112;11.530;2022-08-19T07:08:24;18.02;;;16.17;;
35364;SDS011;21464;48.112;11.530;2022-08-19T07:10:52;15.82;;;13.82;;
35364;SDS011;21464;48.112;11.530;2022-08-19T07:13:19;19.33;;;17.27;;
35364;SDS011;21464;48.112;11.530;2022-08-19T07:15:47;16.77;;;14.98;;
35364;SDS011;21464;48.112;11.530;2022-08-19T07:18:17;16.35;;;14.35;;
35364;SDS011;21464;48.112;11.530;2022-08-19T07:20:44;18.50;;;14.93;;
35364;SDS011;21464;48.112;11.530;2022-08-19T07:23:10;16.20;;;14.45;;
35364;SDS011;21464;48.112;11.530;2022-08-19T07:25:37;18.90;;;14.65;;
35364;SDS011;21464;48.112;11.530;2022-08-19T07:28:04;17.23;;;15.00;;
35364;SDS011;21464;48.112;11.530;2022-08-19T07:30:30;18.63;;;16.17;;
35364;SDS011;21464;48.112;11.530;2022-08-19T07:32:57;17.85;;;15.25;;
35364;SDS011;21464;48.112;11.530;2022-08-19T07:35:23;19.92;;;16.55;;
35364;SDS011;21464;48.112;11.530;2022-08-19T07:37:50;18.27;;;16.48;;
35364;SDS011;21464;48.112;11.530;2022-08-19T07:40:18;20.35;;;18.20;;
35364;SDS011;21464;48.112;11.530;2022-08-19T07:42:44;21.23;;;18.17;;
35364;SDS011;21464;48.112;11.530;2022-08-19T07:45:11;20.70;;;18.50;;
35364;SDS011;21464;48.112;11.530;2022-08-19T07:47:37;21.98;;;19.35;;
35364;SDS011;21464;48.112;11.530;2022-08-19T07:50:07;21.83;;;18.92;;
35364;SDS011;21464;48.112;11.530;2022-08-19T07:52:36;21.05;;;18.67;;
35364;SDS011;21464;48.112;11.530;2022-08-19T07:55:04;23.55;;;20.45;;
35364;SDS011;21464;48.112;11.530;2022-08-19T07:57:31;23.52;;;20.52;;
35364;SDS011;21464;48.112;11.530;2022-08-19T07:59:58;26.45;;;22.27;;
35364;SDS011;21464;48.112;11.530;2022-08-19T08:02:24;25.77;;;21.17;;
35364;SDS011;21464;48.112;11.530;2022-08-19T08:04:50;23.92;;;21.38;;
35364;SDS011;21464;48.112;11.530;2022-08-19T08:07:35;25.50;;;22.10;;
35364;SDS011;21464;48.112;11.530;2022-08-19T08:10:20;26.05;;;21.85;;
35364;SDS011;21464;48.112;11.530;2022-08-19T08:12:47;27.38;;;23.00;;
35364;SDS011;21464;48.112;11.530;2022-08-19T08:15:14;27.85;;;22.60;;
35364;SDS011;21464;48.112;11.530;2022-08-19T08:17:44;26.75;;;23.60;;
35364;SDS011;21464;48.112;11.530;2022-08-19T08:20:11;27.45;;;23.88;;
35364;SDS011;21464;48.112;11.530;2022-08-19T08:22:42;28.38;;;24.60;;
35364;SDS011;21464;48.112;11.530;2022-08-19T08:25:27;28.40;;;25.35;;
35364;SDS011;21464;48.112;11.530;2022-08-19T08:27:53;28.80;;;25.60;;
35364;SDS011;21464;48.112;11.530;2022-08-19T08:30:21;32.72;;;25.98;;
35364;SDS011;21464;48.112;11.530;2022-08-19T08:32:49;30.02;;;25.23;;
35364;SDS011;21464;48.112;11.530;2022-08-19T08:35:17;28.77;;;24.02;;
35364;SDS011;21464;48.112;11.530;2022-08-19T08:37:45;29.88;;;24.20;;
35364;SDS011;21464;48.112;11.530;2022-08-19T08:46:00;28.65;;;24.63;;
35364;SDS011;21464;48.112;11.530;2022-08-19T08:48:49;26.80;;;23.90;;
35364;SDS011;21464;48.112;11.530;2022-08-19T08:51:27;26.00;;;22.92;;
35364;SDS011;21464;48.112;11.530;2022-08-19T08:53:58;28.10;;;23.27;;
35364;SDS011;21464;48.112;11.530;2022-08-19T08:56:25;27.83;;;23.55;;
35364;SDS011;21464;48.112;11.530;2022-08-19T09:01:23;26.88;;;23.48;;
35364;SDS011;21464;48.112;11.530;2022-08-19T09:03:49;27.98;;;23.85;;
35364;SDS011;21464;48.112;11.530;2022-08-19T09:09:00;24.88;;;21.73;;
35364;SDS011;21464;48.112;11.530;2022-08-19T09:14:56;23.27;;;20.80;;
35364;SDS011;21464;48.112;11.530;2022-08-19T09:17:27;26.60;;;22.13;;
35364;SDS011;21464;48.112;11.530;2022-08-19T09:20:10;26.52;;;22.10;;
35364;SDS011;21464;48.112;11.530;2022-08-19T09:22:40;23.58;;;20.63;;
35364;SDS011;21464;48.112;11.530;2022-08-19T09:25:10;25.55;;;21.42;;
35364;SDS011;21464;48.112;11.530;2022-08-19T09:27:38;26.58;;;21.52;;
35364;SDS011;21464;48.112;11.530;2022-08-19T09:30:07;26.23;;;21.25;;
35364;SDS011;21464;48.112;11.530;2022-08-19T09:32:34;24.95;;;21.02;;
35364;SDS011;21464;48.112;11.530;2022-08-19T09:35:00;23.92;;;20.55;;
35364;SDS011;21464;48.112;11.530;2022-08-19T09:37:27;24.23;;;19.17;;
35364;SDS011;21464;48.112;11.530;2022-08-19T09:39:53;24.17;;;20.67;;
35364;SDS011;21464;48.112;11.530;2022-08-19T09:42:20;22.85;;;19.63;;
35364;SDS011;21464;48.112;11.530;2022-08-19T09:44:46;23.33;;;19.90;;
35364;SDS011;21464;48.112;11.530;2022-08-19T09:47:12;24.48;;;20.42;;
35364;SDS011;21464;48.112;11.530;2022-08-19T09:49:39;21.85;;;19.13;;
35364;SDS011;21464;48.112;11.530;2022-08-19T09:52:10;22.90;;;19.50;;
35364;SDS011;21464;48.112;11.530;2022-08-19T09:54:37;22.52;;;20.10;;
35364;SDS011;21464;48.112;11.530;2022-08-19T09:57:04;24.85;;;20.08;;
35364;SDS011;21464;48.112;11.530;2022-08-19T09:59:31;29.23;;;22.63;;
35364;SDS011;21464;48.112;11.530;2022-08-19T10:01:57;23.35;;;20.67;;
35364;SDS011;21464;48.112;11.530;2022-08-19T10:04:23;25.77;;;21.58;;
35364;SDS011;21464;48.112;11.530;2022-08-19T10:07:09;28.05;;;22.13;;
35364;SDS011;21464;48.112;11.530;2022-08-19T10:09:35;23.73;;;20.50;;
35364;SDS011;21464;48.112;11.530;2022-08-19T10:12:03;24.13;;;20.63;;
35364;SDS011;21464;48.112;11.530;2022-08-19T10:14:30;24.48;;;20.17;;
35364;SDS011;21464;48.112;11.530;2022-08-19T10:16:56;24.33;;;20.55;;
35364;SDS011;21464;48.112;11.530;2022-08-19T10:19:23;26.05;;;21.88;;
35364;SDS011;21464;48.112;11.530;2022-08-19T10:21:50;22.08;;;19.48;;
35364;SDS011;21464;48.112;11.530;2022-08-19T10:24:16;24.98;;;20.20;;
35364;SDS011;21464;48.112;11.530;2022-08-19T10:26:42;23.77;;;20.58;;
35364;SDS011;21464;48.112;11.530;2022-08-19T10:29:10;23.70;;;19.30;;
35364;SDS011;21464;48.112;11.530;2022-08-19T10:31:37;23.30;;;18.70;;
35364;SDS011;21464;48.112;11.530;2022-08-19T10:34:03;21.40;;;18.45;;
35364;SDS011;21464;48.112;11.530;2022-08-19T10:36:33;23.15;;;19.17;;
35364;SDS011;21464;48.112;11.530;2022-08-19T10:39:02;21.55;;;18.52;;
35364;SDS011;21464;48.112;11.530;2022-08-19T10:41:32;20.33;;;17.60;;
35364;SDS011;21464;48.112;11.530;2022-08-19T10:44:00;21.60;;;17.98;;
35364;SDS011;21464;48.112;11.530;2022-08-19T10:46:29;19.55;;;17.38;;
35364;SDS011;21464;48.112;11.530;2022-08-19T10:48:59;20.70;;;17.90;;
35364;SDS011;21464;48.112;11.530;2022-08-19T10:51:26;19.30;;;17.23;;
35364;SDS011;21464;48.112;11.530;2022-08-19T10:54:11;17.38;;;15.07;;
35364;SDS011;21464;48.112;11.530;2022-08-19T10:56:38;15.63;;;13.68;;
35364;SDS011;21464;48.112;11.530;2022-08-19T10:59:18;15.00;;;12.73;;
35364;SDS011;21464;48.112;11.530;2022-08-19T11:01:45;14.68;;;13.15;;
35364;SDS011;21464;48.112;11.530;2022-08-19T11:04:12;14.18;;;12.35;;
35364;SDS011;21464;48.112;11.530;2022-08-19T11:06:40;14.20;;;12.77;;
35364;SDS011;21464;48.112;11.530;2022-08-19T11:09:09;13.23;;;11.85;;
35364;SDS011;21464;48.112;11.530;2022-08-19T11:11:37;14.32;;;12.82;;
35364;SDS011;21464;48.112;11.530;2022-08-19T11:14:07;12.57;;;11.18;;
35364;SDS011;21464;48.112;11.530;2022-08-19T11:16:39;13.70;;;12.30;;
35364;SDS011;21464;48.112;11.530;2022-08-19T11:19:08;12.25;;;11.05;;
35364;SDS011;21464;48.112;11.530;2022-08-19T11:21:36;11.93;;;10.80;;
35364;SDS011;21464;48.112;11.530;2022-08-19T11:24:09;14.13;;;12.48;;
35364;SDS011;21464;48.112;11.530;2022-08-19T11:26:37;16.77;;;14.40;;
35364;SDS011;21464;48.112;11.530;2022-08-19T11:29:05;15.18;;;13.60;;
35364;SDS011;21464;48.112;11.530;2022-08-19T11:31:33;11.85;;;10.38;;
35364;SDS011;21464;48.112;11.530;2022-08-19T11:34:03;11.32;;;10.13;;
35364;SDS011;21464;48.112;11.530;2022-08-19T11:36:30;12.20;;;11.00;;
35364;SDS011;21464;48.112;11.530;2022-08-19T11:38:58;9.85;;;8.95;;
35364;SDS011;21464;48.112;11.530;2022-08-19T11:41:24;9.63;;;8.73;;
35364;SDS011;21464;48.112;11.530;2022-08-19T11:43:51;7.40;;;6.78;;
35364;SDS011;21464;48.112;11.530;2022-08-19T11:46:21;7.68;;;6.78;;
35364;SDS011;21464;48.112;11.530;2022-08-19T11:48:48;6.65;;;6.05;;
35364;SDS011;21464;48.112;11.530;2022-08-19T11:51:17;7.00;;;6.40;;
35364;SDS011;21464;48.112;11.530;2022-08-19T11:53:45;7.60;;;6.90;;
35364;SDS011;21464;48.112;11.530;2022-08-19T11:56:12;7.25;;;6.55;;
35364;SDS011;21464;48.112;11.530;2022-08-19T11:58:38;6.80;;;6.20;;
35364;SDS011;21464;48.112;11.530;2022-08-19T12:01:05;6.10;;;5.50;;
35364;SDS011;21464;48.112;11.530;2022-08-19T12:03:33;5.93;;;5.35;;
35364;SDS011;21464;48.112;11.530;2022-08-19T12:06:04;4.60;;;4.10;;
35364;SDS011;21464;48.112;11.530;2022-08-19T12:08:35;2.75;;;2.55;;
35364;SDS011;21464;48.112;11.530;2022-08-19T12:11:01;2.40;;;2.30;;
35364;SDS011;21464;48.112;11.530;2022-08-19T12:13:28;2.70;;;2.50;;
35364;SDS011;21464;48.112;11.530;2022-08-19T12:15:56;1.98;;;1.85;;
35364;SDS011;21464;48.112;11.530;2022-08-19T12:18:22;1.90;;;1.80;;
35364;SDS011;21464;48.112;11.530;2022-08-19T12:20:50;1.98;;;1.88;;
35364;SDS011;21464;48.112;11.530;2022-08-19T12:23:18;2.40;;;2.00;;
35364;SDS011;21464;48.112;11.530;2022-08-19T12:25:45;2.40;;;2.28;;
35364;SDS011;21464;48.112;11.530;2022-08-19T12:28:19;2.55;;;2.35;;
35364;SDS011;21464;48.112;11.530;2022-08-19T12:30:46;2.38;;;2.17;;
35364;SDS011;21464;48.112;11.530;2022-08-19T12:33:13;2.35;;;2.15;;
35364;SDS011;21464;48.112;11.530;2022-08-19T12:35:41;2.50;;;2.40;;
35364;SDS011;21464;48.112;11.530;2022-08-19T12:38:08;2.20;;;2.10;;
35364;SDS011;21464;48.112;11.530;2022-08-19T12:40:34;2.30;;;2.20;;
35364;SDS011;21464;48.112;11.530;2022-08-19T12:43:00;1.98;;;1.88;;
35364;SDS011;21464;48.112;11.530;2022-08-19T12:45:27;1.98;;;1.88;;
35364;SDS011;21464;48.112;11.530;2022-08-19T12:47:53;1.70;;;1.60;;
35364;SDS011;21464;48.112;11.530;2022-08-19T12:50:19;3.38;;;3.08;;
35364;SDS011;21464;48.112;11.530;2022-08-19T12:52:47;2.20;;;2.10;;
35364;SDS011;21464;48.112;11.530;2022-08-19T12:55:13;2.70;;;2.10;;
35364;SDS011;21464;48.112;11.530;2022-08-19T12:57:40;2.10;;;2.00;;
35364;SDS011;21464;48.112;11.530;2022-08-19T13:00:14;1.85;;;1.75;;
35364;SDS011;21464;48.112;11.530;2022-08-19T13:02:43;2.10;;;2.00;;
35364;SDS011;21464;48.112;11.530;2022-08-19T13:05:13;2.17;;;2.08;;
35364;SDS011;21464;48.112;11.530;2022-08-19T13:07:41;2.30;;;2.20;;
35364;SDS011;21464;48.112;11.530;2022-08-19T13:10:11;2.30;;;2.10;;
35364;SDS011;21464;48.112;11.530;2022-08-19T13:12:38;2.35;;;2.15;;
35364;SDS011;21464;48.112;11.530;2022-08-19T13:15:06;2.10;;;1.90;;
35364;SDS011;21464;48.112;11.530;2022-08-19T13:17:34;2.25;;;2.00;;
35364;SDS011;21464;48.112;11.530;2022-08-19T13:20:01;2.10;;;2.00;;
35364;SDS011;21464;48.112;11.530;2022-08-19T13:22:28;1.65;;;1.60;;
35364;SDS011;21464;48.112;11.530;2022-08-19T13:24:54;1.95;;;1.85;;
35364;SDS011;21464;48.112;11.530;2022-08-19T13:27:21;2.17;;;2.08;;
35364;SDS011;21464;48.112;11.530;2022-08-19T13:29:47;2.10;;;1.90;;
35364;SDS011;21464;48.112;11.530;2022-08-19T13:32:32;2.00;;;1.90;;
35364;SDS011;21464;48.112;11.530;2022-08-19T13:35:17;2.30;;;2.10;;
35364;SDS011;21464;48.112;11.530;2022-08-19T13:37:43;2.28;;;2.17;;
35364;SDS011;21464;48.112;11.530;2022-08-19T13:40:18;2.65;;;2.45;;
35364;SDS011;21464;48.112;11.530;2022-08-19T13:42:48;2.03;;;1.92;;
35364;SDS011;21464;48.112;11.530;2022-08-19T13:45:17;2.88;;;2.58;;
35364;SDS011;21464;48.112;11.530;2022-08-19T13:47:46;2.30;;;2.20;;
35364;SDS011;21464;48.112;11.530;2022-08-19T13:50:14;2.53;;;2.42;;
35364;SDS011;21464;48.112;11.530;2022-08-19T13:52:41;3.00;;;2.80;;
35364;SDS011;21464;48.112;11.530;2022-08-19T13:55:09;3.05;;;2.83;;
35364;SDS011;21464;48.112;11.530;2022-08-19T13:57:36;2.58;;;2.47;;
35364;SDS011;21464;48.112;11.530;2022-08-19T14:00:10;2.97;;;2.78;;
35364;SDS011;21464;48.112;11.530;2022-08-19T14:02:39;3.08;;;2.88;;
35364;SDS011;21464;48.112;11.530;2022-08-19T14:05:07;3.63;;;3.42;;
35364;SDS011;21464;48.112;11.530;2022-08-19T14:07:35;3.70;;;3.47;;
35364;SDS011;21464;48.112;11.530;2022-08-19T14:10:02;3.70;;;3.50;;
35364;SDS011;21464;48.112;11.530;2022-08-19T14:12:32;4.35;;;4.05;;
35364;SDS011;21464;48.112;11.530;2022-08-19T14:14:59;3.95;;;3.65;;
35364;SDS011;21464;48.112;11.530;2022-08-19T14:17:25;4.38;;;4.07;;
35364;SDS011;21464;48.112;11.530;2022-08-19T14:19:58;4.03;;;3.72;;
35364;SDS011;21464;48.112;11.530;2022-08-19T14:22:29;4.15;;;3.83;;
35364;SDS011;21464;48.112;11.530;2022-08-19T14:24:56;4.25;;;3.85;;
35364;SDS011;21464;48.112;11.530;2022-08-19T14:27:22;3.95;;;3.65;;
35364;SDS011;21464;48.112;11.530;2022-08-19T14:29:51;4.10;;;3.80;;
35364;SDS011;21464;48.112;11.530;2022-08-19T14:32:17;5.10;;;4.70;;
35364;SDS011;21464;48.112;11.530;2022-08-19T14:34:44;3.75;;;3.45;;
35364;SDS011;21464;48.112;11.530;2022-08-19T14:37:13;3.17;;;2.97;;
35364;SDS011;21464;48.112;11.530;2022-08-19T14:39:40;3.50;;;3.20;;
35364;SDS011;21464;48.112;11.530;2022-08-19T14:42:08;3.20;;;3.00;;
35364;SDS011;21464;48.112;11.530;2022-08-19T14:44:34;2.55;;;2.40;;
35364;SDS011;21464;48.112;11.530;2022-08-19T14:47:01;2.75;;;2.60;;